Time;durP1;ratioP1;P1;durP2;ratioP2;P2;SDS_P1;SDS_P2;PMS_P1;PMS_P2;Temp;Humidity;BMP_temperature;BMP_pressure;BME280_temperature;BME280_humidity;BME280_pressure;Samples;Min_cycle;Max_cycle;Signal;HPM_P1;HPM_P2
2024/01/08 00:00:09;;;;;;;;;22.80;22.20;;;;;-1.34;79.90;98335.75;5048684;28;8876;-77
2024/01/08 00:02:58;;;;;;;;;27.60;26.80;;;;;-1.28;80.03;98333.22;5023977;28;8830;-77
2024/01/08 00:05:28;;;;;;;;;26.60;23.00;;;;;-1.35;79.42;98344.34;5055251;28;8853;-78
2024/01/08 00:07:58;;;;;;;;;33.00;28.00;;;;;-1.80;82.84;98348.28;5062791;28;9623;-76
2024/01/08 00:10:27;;;;;;;;;28.80;27.80;;;;;-1.82;83.71;98353.41;5063025;28;8853;-79
2024/01/08 00:12:56;;;;;;;;;34.75;31.75;;;;;-1.98;83.43;98351.50;5047717;28;8877;-77
2024/01/08 00:15:25;;;;;;;;;37.00;29.50;;;;;-2.01;85.04;98354.94;5051050;28;8880;-77
2024/01/08 00:17:54;;;;;;;;;41.25;40.25;;;;;-1.75;83.82;98354.31;5051247;28;8866;-77
2024/01/08 00:20:23;;;;;;;;;30.75;30.75;;;;;-1.75;83.49;98362.03;5016019;28;9583;-76
2024/01/08 00:22:53;;;;;;;;;40.00;34.75;;;;;-1.91;84.27;98371.34;5051284;28;9615;-77
2024/01/08 00:25:22;;;;;;;;;23.25;18.75;;;;;-1.89;84.51;98351.59;5053842;28;8865;-77
2024/01/08 00:27:52;;;;;;;;;39.75;32.00;;;;;-1.94;84.06;98364.44;4992504;28;8841;-77
2024/01/08 00:30:21;;;;;;;;;37.75;34.50;;;;;-2.23;85.31;98378.72;5057557;28;8861;-78
2024/01/08 00:32:50;;;;;;;;;41.50;39.50;;;;;-2.36;86.10;98381.13;5021298;28;8834;-78
2024/01/08 00:35:19;;;;;;;;;38.75;35.00;;;;;-2.32;86.19;98393.19;5061722;28;8868;-78
2024/01/08 00:37:49;;;;;;;;;40.00;35.25;;;;;-2.42;86.69;98387.91;5049895;28;9999;-78
2024/01/08 00:40:19;;;;;;;;;34.25;33.00;;;;;-2.44;86.38;98390.47;5020297;28;8834;-78
2024/01/08 00:42:48;;;;;;;;;45.75;41.25;;;;;-2.40;85.86;98404.25;5050817;28;8856;-78
2024/01/08 00:45:17;;;;;;;;;39.50;37.75;;;;;-2.21;85.71;98406.19;5050923;28;8861;-78
2024/01/08 00:47:46;;;;;;;;;40.75;39.50;;;;;-2.51;86.52;98422.97;5049436;28;8841;-78
2024/01/08 00:50:15;;;;;;;;;37.00;34.50;;;;;-2.52;86.25;98421.25;5050248;28;8949;-77
2024/01/08 00:52:44;;;;;;;;;49.75;44.75;;;;;-2.38;85.87;98421.41;5050986;28;8875;-79
2024/01/08 00:55:13;;;;;;;;;39.25;36.00;;;;;-2.25;84.80;98425.03;5016363;28;9674;-78
2024/01/08 00:57:44;;;;;;;;;42.00;37.00;;;;;-2.54;86.10;98422.09;5051809;28;8830;-77
2024/01/08 01:00:13;;;;;;;;;36.00;33.00;;;;;-2.33;86.04;98434.38;5063726;28;8876;-78
2024/01/08 01:02:42;;;;;;;;;30.25;25.75;;;;;-2.64;86.57;98443.34;5069771;28;8858;-78
2024/01/08 01:05:12;;;;;;;;;42.50;38.75;;;;;-2.45;86.54;98437.63;5068535;28;8891;-78
2024/01/08 01:07:41;;;;;;;;;53.50;45.75;;;;;-2.42;86.41;98441.97;5068961;28;8870;-78
2024/01/08 01:10:11;;;;;;;;;49.50;43.75;;;;;-2.46;86.49;98435.91;5069074;28;8989;-78
2024/01/08 01:12:40;;;;;;;;;48.50;41.75;;;;;-2.43;86.51;98445.38;5070684;28;8873;-77
2024/01/08 01:15:11;;;;;;;;;38.50;35.25;;;;;-2.50;86.92;98447.00;5024242;28;8903;-76
2024/01/08 01:17:40;;;;;;;;;44.50;41.25;;;;;-2.52;87.05;98448.69;5075715;28;8899;-77
2024/01/08 01:20:09;;;;;;;;;58.25;48.25;;;;;-2.61;87.07;98461.44;5070612;28;8843;-76
2024/01/08 01:22:39;;;;;;;;;49.50;42.75;;;;;-2.56;86.27;98464.91;5068996;28;8835;-77
2024/01/08 01:25:09;;;;;;;;;50.25;39.25;;;;;-2.70;86.31;98468.13;5084286;28;8889;-77
2024/01/08 01:27:38;;;;;;;;;40.50;39.00;;;;;-2.61;85.70;98464.00;5074330;28;8865;-77
2024/01/08 01:30:08;;;;;;;;;43.50;34.00;;;;;-2.54;84.71;98466.69;4999293;28;8865;-76
2024/01/08 01:32:38;;;;;;;;;43.50;34.00;;;;;-2.72;84.15;98471.53;5050476;28;8876;-78
2024/01/08 01:35:08;;;;;;;;;31.00;28.25;;;;;-2.49;83.32;98477.03;5050488;28;8965;-76
2024/01/08 01:37:38;;;;;;;;;33.00;28.75;;;;;-2.57;83.88;98481.19;4967302;28;8973;-77
2024/01/08 01:40:08;;;;;;;;;36.50;34.25;;;;;-2.67;83.50;98488.78;5050121;28;8869;-78
2024/01/08 01:42:37;;;;;;;;;29.25;27.00;;;;;-2.95;84.18;98484.06;5065311;28;8852;-76
2024/01/08 01:45:08;;;;;;;;;32.50;29.00;;;;;-2.87;84.19;98490.16;5049717;28;8888;-77
2024/01/08 01:47:38;;;;;;;;;33.40;28.60;;;;;-2.75;84.67;98492.94;5031299;28;8861;-78
2024/01/08 01:50:11;;;;;;;;;32.25;30.50;;;;;-2.90;84.16;98500.44;5049497;28;8845;-77
2024/01/08 01:52:41;;;;;;;;;27.60;24.40;;;;;-2.77;83.92;98488.59;5030919;28;8867;-76
2024/01/08 01:55:11;;;;;;;;;34.50;30.25;;;;;-2.49;83.29;98498.50;5048453;28;8934;-78
2024/01/08 01:57:43;;;;;;;;;36.00;31.00;;;;;-2.74;84.45;98493.81;5069268;28;8951;-78
2024/01/08 02:00:14;;;;;;;;;32.50;31.25;;;;;-2.56;84.00;98496.66;5069648;28;8850;-78
2024/01/08 02:02:44;;;;;;;;;36.00;33.50;;;;;-2.64;83.56;98497.38;5067805;28;8830;-77
2024/01/08 02:05:15;;;;;;;;;31.50;29.75;;;;;-2.73;83.86;98495.53;5055788;28;8854;-77
2024/01/08 02:07:45;;;;;;;;;26.25;19.50;;;;;-2.93;84.42;98505.50;5073348;28;8886;-77
2024/01/08 02:10:14;;;;;;;;;37.75;34.50;;;;;-2.98;85.27;98494.28;5049406;28;8891;-78
2024/01/08 02:12:43;;;;;;;;;47.75;39.25;;;;;-2.99;85.09;98495.13;5047732;28;8849;-78
2024/01/08 02:15:12;;;;;;;;;40.75;33.25;;;;;-3.05;84.75;98514.75;5047917;28;8899;-77
2024/01/08 02:17:41;;;;;;;;;38.25;31.00;;;;;-3.02;84.34;98507.91;5066640;28;8852;-76
2024/01/08 02:20:11;;;;;;;;;39.75;32.75;;;;;-3.10;84.59;98507.78;5050096;28;8976;-78
2024/01/08 02:22:42;;;;;;;;;38.00;35.50;;;;;-2.97;84.28;98507.16;5065538;28;8850;-78
2024/01/08 02:25:12;;;;;;;;;33.50;30.50;;;;;-3.27;84.18;98504.94;5066444;28;8862;-78
2024/01/08 02:27:41;;;;;;;;;42.00;33.50;;;;;-2.96;83.95;98513.16;5066328;28;8862;-78
2024/01/08 02:30:11;;;;;;;;;38.25;36.25;;;;;-2.92;83.30;98510.69;5016715;28;8840;-77
2024/01/08 02:32:40;;;;;;;;;29.25;29.25;;;;;-3.01;83.97;98513.09;5033343;28;8844;-77
2024/01/08 02:35:09;;;;;;;;;31.00;29.75;;;;;-3.14;83.88;98524.00;5049834;28;8934;-79
2024/01/08 02:37:38;;;;;;;;;35.00;32.50;;;;;-3.29;83.19;98520.31;5064299;28;8874;-77
2024/01/08 02:40:09;;;;;;;;;28.50;27.25;;;;;-3.17;83.41;98529.94;5065918;28;9057;-76
2024/01/08 02:42:41;;;;;;;;;34.25;29.50;;;;;-3.20;83.40;98521.34;5068456;28;8854;-78
2024/01/08 02:45:10;;;;;;;;;27.50;24.75;;;;;-3.18;83.48;98529.94;5079858;28;8904;-78
2024/01/08 02:47:40;;;;;;;;;28.40;28.40;;;;;-3.30;82.92;98526.31;5048552;28;8891;-76
2024/01/08 02:50:10;;;;;;;;;36.75;30.75;;;;;-3.26;82.89;98516.97;5063978;28;8872;-75
2024/01/08 02:52:39;;;;;;;;;25.50;25.25;;;;;-3.32;82.61;98535.69;5061085;28;8853;-76
2024/01/08 02:55:10;;;;;;;;;26.50;22.75;;;;;-3.34;82.38;98544.19;5062927;28;8847;-76
2024/01/08 02:57:39;;;;;;;;;30.25;29.50;;;;;-3.28;83.27;98542.63;5046884;28;8890;-76
2024/01/08 03:00:09;;;;;;;;;34.25;28.25;;;;;-3.37;83.77;98539.03;5046907;28;8867;-76
2024/01/08 03:02:39;;;;;;;;;31.25;24.25;;;;;-3.28;83.46;98545.19;5046513;28;8886;-77
2024/01/08 03:05:09;;;;;;;;;27.75;25.00;;;;;-3.13;82.69;98549.75;5065528;28;9617;-76
2024/01/08 03:07:38;;;;;;;;;26.40;26.40;;;;;-3.33;83.31;98561.34;5064633;28;8876;-77
2024/01/08 03:10:09;;;;;;;;;32.50;28.25;;;;;-3.20;82.95;98559.88;5051389;28;8847;-77
2024/01/08 03:12:39;;;;;;;;;27.80;25.20;;;;;-3.23;82.95;98565.81;4969680;28;8836;-75
2024/01/08 03:15:08;;;;;;;;;26.50;25.25;;;;;-3.05;82.52;98563.59;5049497;28;8832;-76
2024/01/08 03:17:37;;;;;;;;;39.00;28.00;;;;;-2.98;82.65;98571.41;5065695;28;8875;-77
2024/01/08 03:20:08;;;;;;;;;29.80;27.40;;;;;-2.93;83.53;98567.22;5067061;28;8978;-77
2024/01/08 03:22:39;;;;;;;;;23.75;23.75;;;;;-3.27;85.05;98558.91;5049511;28;8886;-77
2024/01/08 03:25:10;;;;;;;;;36.25;30.75;;;;;-3.18;84.47;98569.34;4996951;28;8955;-77
2024/01/08 03:27:40;;;;;;;;;26.75;25.00;;;;;-3.25;85.36;98582.91;4997185;28;8853;-77
2024/01/08 03:30:09;;;;;;;;;25.75;24.00;;;;;-3.21;84.99;98582.13;5057221;28;9061;-77
2024/01/08 03:32:39;;;;;;;;;37.00;33.25;;;;;-3.20;85.45;98588.16;5066643;28;8963;-77
2024/01/08 03:35:08;;;;;;;;;33.40;27.80;;;;;-3.10;85.10;98588.34;5068106;28;9671;-77
2024/01/08 03:37:37;;;;;;;;;32.20;27.00;;;;;-3.38;85.58;98586.94;5031946;28;8858;-76
2024/01/08 03:40:09;;;;;;;;;38.25;35.00;;;;;-3.36;86.24;98590.41;5068209;28;8885;-76
2024/01/08 03:42:39;;;;;;;;;34.25;31.00;;;;;-3.36;86.20;98589.56;5070530;28;8850;-77
2024/01/08 03:45:09;;;;;;;;;36.00;31.25;;;;;-3.20;85.35;98598.44;5086871;28;8861;-76
2024/01/08 03:47:39;;;;;;;;;36.75;31.50;;;;;-3.18;84.57;98605.34;5062644;28;8850;-77
2024/01/08 03:50:09;;;;;;;;;33.00;29.25;;;;;-3.32;85.01;98606.75;5071298;28;8850;-77
2024/01/08 03:52:38;;;;;;;;;29.75;28.25;;;;;-3.39;85.06;98618.63;5070711;28;8939;-77
2024/01/08 03:55:09;;;;;;;;;16.75;16.00;;;;;-3.36;85.26;98612.69;5071670;28;8873;-76
2024/01/08 03:57:39;;;;;;;;;33.25;31.25;;;;;-3.37;85.61;98610.97;5070840;28;9651;-77
2024/01/08 04:00:09;;;;;;;;;30.50;27.25;;;;;-3.25;85.70;98619.75;5071282;28;8865;-77
2024/01/08 04:02:41;;;;;;;;;32.00;29.25;;;;;-3.06;83.59;98623.53;5072016;28;9729;-76
2024/01/08 04:05:12;;;;;;;;;37.50;33.25;;;;;-3.30;84.23;98630.78;5053818;28;8830;-77
2024/01/08 04:07:41;;;;;;;;;35.00;29.25;;;;;-3.36;84.89;98633.22;5056812;28;8912;-75
2024/01/08 04:10:12;;;;;;;;;27.25;22.75;;;;;-3.14;83.74;98630.25;5032715;28;8879;-77
2024/01/08 04:12:41;;;;;;;;;35.75;29.75;;;;;-3.57;84.51;98643.94;5059358;28;8877;-79
2024/01/08 04:15:10;;;;;;;;;33.75;29.50;;;;;-3.45;84.84;98637.38;5048809;28;8850;-76
2024/01/08 04:17:39;;;;;;;;;28.75;26.25;;;;;-3.36;84.09;98648.66;5048969;28;8886;-76
2024/01/08 04:20:09;;;;;;;;;27.75;26.00;;;;;-3.30;83.66;98656.47;5032212;28;8972;-77
2024/01/08 04:22:38;;;;;;;;;30.25;25.75;;;;;-3.40;84.49;98659.72;4999816;28;8838;-78
2024/01/08 04:25:08;;;;;;;;;30.00;28.50;;;;;-3.24;82.93;98659.19;5048844;28;9707;-77
2024/01/08 04:27:38;;;;;;;;;28.50;27.25;;;;;-3.33;84.22;98661.56;4981916;28;8863;-76
2024/01/08 04:30:08;;;;;;;;;34.00;32.00;;;;;-3.50;84.60;98668.94;4970132;28;9009;-76
2024/01/08 04:32:37;;;;;;;;;35.75;34.00;;;;;-3.60;84.71;98673.00;4975742;28;8856;-76
2024/01/08 04:35:07;;;;;;;;;40.75;36.00;;;;;-3.57;85.03;98669.63;5001135;28;8863;-76
2024/01/08 04:37:37;;;;;;;;;41.25;34.75;;;;;-3.42;84.65;98675.09;4987035;28;8892;-76
2024/01/08 04:40:07;;;;;;;;;38.50;28.25;;;;;-3.69;85.47;98675.38;4989465;28;9109;-77
2024/01/08 04:42:36;;;;;;;;;32.00;29.75;;;;;-3.71;85.40;98687.31;4968639;28;9668;-77
2024/01/08 04:45:07;;;;;;;;;33.75;31.25;;;;;-3.66;84.84;98683.13;4969226;28;8887;-76
2024/01/08 04:47:36;;;;;;;;;15.50;13.75;;;;;-3.79;85.14;98696.53;4992177;28;9004;-75
2024/01/08 04:50:06;;;;;;;;;40.25;33.50;;;;;-3.48;84.37;98691.25;5008902;28;9669;-76
2024/01/08 04:52:35;;;;;;;;;37.25;35.25;;;;;-3.49;83.59;98694.66;4984399;28;8881;-77
2024/01/08 04:55:06;;;;;;;;;33.00;32.00;;;;;-3.70;85.39;98699.31;5028059;28;8926;-77
2024/01/08 04:57:35;;;;;;;;;39.25;32.25;;;;;-3.38;83.89;98706.84;5027097;28;8848;-76
2024/01/08 05:00:07;;;;;;;;;35.50;33.25;;;;;-3.52;83.85;98720.28;5015624;28;8863;-75
2024/01/08 05:02:36;;;;;;;;;38.00;30.25;;;;;-3.60;84.54;98728.63;5062932;28;8977;-79
2024/01/08 05:05:05;;;;;;;;;34.25;30.25;;;;;-3.58;84.63;98722.72;5051369;28;8896;-77
2024/01/08 05:07:34;;;;;;;;;28.25;24.00;;;;;-3.70;85.37;98735.25;5044893;28;8837;-76
2024/01/08 05:10:04;;;;;;;;;30.75;29.00;;;;;-3.50;84.56;98723.75;5044973;28;9570;-79
2024/01/08 05:12:33;;;;;;;;;34.00;27.00;;;;;-3.54;84.18;98731.34;5045583;28;8882;-78
2024/01/08 05:15:02;;;;;;;;;31.25;30.25;;;;;-3.56;84.43;98740.72;5047909;28;9512;-77
2024/01/08 05:17:33;;;;;;;;;38.75;32.50;;;;;-3.77;84.57;98748.78;5046268;28;8882;-78
2024/01/08 05:20:02;;;;;;;;;33.25;31.50;;;;;-3.73;85.38;98751.47;5032945;28;8864;-78
2024/01/08 05:22:32;;;;;;;;;31.75;28.50;;;;;-3.51;84.16;98747.72;5037776;28;8820;-78
2024/01/08 05:25:00;;;;;;;;;36.25;33.25;;;;;-3.75;84.78;98757.38;5048087;28;8840;-78
2024/01/08 05:27:29;;;;;;;;;37.00;29.50;;;;;-3.70;84.59;98763.50;5015793;28;8992;-81
2024/01/08 05:29:58;;;;;;;;;53.00;44.00;;;;;-3.71;84.92;98761.78;5012374;28;8911;-78
2024/01/08 05:32:27;;;;;;;;;39.00;36.75;;;;;-3.77;85.61;98769.31;4984436;28;8983;-78
2024/01/08 05:34:58;;;;;;;;;56.25;48.25;;;;;-3.76;84.83;98761.66;5027502;28;8856;-77
2024/01/08 05:37:27;;;;;;;;;69.50;51.25;;;;;-3.60;84.91;98770.63;5032638;28;8862;-78
2024/01/08 05:39:56;;;;;;;;;56.00;45.00;;;;;-3.47;83.67;98770.06;5052094;28;8874;-78
2024/01/08 05:42:26;;;;;;;;;51.50;46.00;;;;;-3.55;83.61;98776.72;5070127;28;8886;-79
2024/01/08 05:44:55;;;;;;;;;70.75;54.50;;;;;-3.46;83.17;98781.19;5070396;28;8904;-79
2024/01/08 05:47:25;;;;;;;;;65.00;53.50;;;;;-3.48;83.63;98781.16;5069940;28;8854;-80
2024/01/08 05:49:54;;;;;;;;;60.50;52.50;;;;;-3.20;82.61;98781.78;5067948;28;8944;-80
2024/01/08 05:52:24;;;;;;;;;57.00;48.50;;;;;-3.48;83.30;98778.59;5085312;28;8847;-80
2024/01/08 05:54:53;;;;;;;;;60.00;50.00;;;;;-3.48;83.78;98780.31;5068938;28;8866;-78
2024/01/08 05:57:22;;;;;;;;;63.00;52.00;;;;;-3.57;83.61;98792.94;5068899;28;8831;-79
2024/01/08 05:59:51;;;;;;;;;69.00;53.50;;;;;-3.71;84.40;98796.03;5068073;28;8997;-77
2024/01/08 06:02:21;;;;;;;;;56.00;48.25;;;;;-3.60;83.86;98790.28;5064821;28;8842;-77
2024/01/08 06:04:50;;;;;;;;;62.50;48.25;;;;;-3.79;84.31;98804.38;5060119;28;8850;-79
2024/01/08 06:07:19;;;;;;;;;69.75;56.50;;;;;-3.62;83.90;98790.25;5068335;28;8862;-77
2024/01/08 06:09:49;;;;;;;;;48.50;43.50;;;;;-3.84;83.56;98801.69;5062442;28;8974;-79
2024/01/08 06:12:18;;;;;;;;;55.25;47.00;;;;;-3.90;84.73;98806.69;5051400;28;8850;-78
2024/01/08 06:14:48;;;;;;;;;47.50;44.50;;;;;-3.97;84.62;98812.50;5082831;28;8843;-78
2024/01/08 06:17:18;;;;;;;;;66.50;50.25;;;;;-3.98;84.88;98823.56;5069878;28;8873;-78
2024/01/08 06:19:48;;;;;;;;;50.75;43.75;;;;;-3.87;84.20;98812.75;5069811;28;8854;-79
2024/01/08 06:22:17;;;;;;;;;48.25;41.25;;;;;-3.98;84.29;98823.56;5039769;28;8864;-79
2024/01/08 06:24:46;;;;;;;;;40.50;32.00;;;;;-4.00;84.68;98820.97;5054359;28;8866;-81
2024/01/08 06:27:17;;;;;;;;;63.50;51.00;;;;;-4.00;84.38;98828.66;5069191;28;8960;-79
2024/01/08 06:29:46;;;;;;;;;50.50;46.00;;;;;-4.07;83.79;98827.66;5069959;28;8998;-81
2024/01/08 06:32:16;;;;;;;;;38.25;36.50;;;;;-4.16;84.39;98842.81;5069772;28;8866;-82
2024/01/08 06:34:45;;;;;;;;;44.00;38.50;;;;;-4.24;83.63;98841.75;5069781;28;8971;-79
2024/01/08 06:37:14;;;;;;;;;41.75;39.25;;;;;-4.14;83.78;98845.41;5067852;28;8847;-81
2024/01/08 06:39:43;;;;;;;;;53.50;46.25;;;;;-4.00;83.47;98840.66;5069967;28;8909;-81
2024/01/08 06:42:13;;;;;;;;;52.25;44.00;;;;;-3.59;82.47;98839.13;5083302;28;9540;-81
2024/01/08 06:44:43;;;;;;;;;57.25;47.50;;;;;-3.68;81.78;98851.72;5055428;28;8865;-81
2024/01/08 06:47:12;;;;;;;;;54.25;43.50;;;;;-3.68;82.55;98856.88;5050125;28;8853;-80
2024/01/08 06:49:41;;;;;;;;;68.00;55.00;;;;;-3.91;82.93;98867.41;5040591;28;8984;-81
2024/01/08 06:52:11;;;;;;;;;46.25;38.25;;;;;-3.93;82.54;98879.34;5025159;28;8849;-81
2024/01/08 06:54:40;;;;;;;;;38.50;36.75;;;;;-4.14;83.42;98877.09;5070130;28;9677;-81
2024/01/08 06:57:09;;;;;;;;;40.75;39.25;;;;;-4.06;83.07;98887.56;5067626;28;8823;-83
2024/01/08 06:59:38;;;;;;;;;46.75;39.00;;;;;-3.87;82.28;98881.22;5071626;28;8874;-81
2024/01/08 07:02:09;;;;;;;;;36.25;33.00;;;;;-4.26;83.14;98887.88;5080521;28;8895;-83
2024/01/08 07:04:37;;;;;;;;;35.00;31.50;;;;;-4.10;83.70;98893.44;5071094;28;8866;-80
2024/01/08 07:07:07;;;;;;;;;37.50;35.00;;;;;-3.62;82.39;98882.72;5052899;28;8858;-80
2024/01/08 07:09:36;;;;;;;;;37.00;32.75;;;;;-3.85;82.49;98902.66;5068613;28;8929;-81
2024/01/08 07:12:09;;;;;;;;;44.00;42.00;;;;;-4.09;82.58;98901.19;5015879;28;8841;-83
2024/01/08 07:14:45;;;;;;;;;36.75;29.75;;;;;-4.22;82.86;98904.25;5064569;28;8848;-82
2024/01/08 07:17:16;;;;;;;;;44.00;41.00;;;;;-4.03;82.90;98906.47;5043140;28;8946;-81
2024/01/08 07:19:46;;;;;;;;;50.00;45.00;;;;;-4.11;82.80;98918.25;5019496;28;8876;-84
2024/01/08 07:22:16;;;;;;;;;52.75;45.25;;;;;-4.05;82.20;98912.41;4995041;28;8849;-83
2024/01/08 07:24:45;;;;;;;;;43.50;42.50;;;;;-4.09;82.21;98914.03;4997761;28;8886;-81
2024/01/08 07:27:14;;;;;;;;;45.25;39.50;;;;;-4.28;82.88;98927.16;5033591;28;8845;-83
2024/01/08 07:29:44;;;;;;;;;33.25;31.25;;;;;-4.35;83.29;98922.69;5037333;28;8884;-83
2024/01/08 07:32:14;;;;;;;;;44.25;40.75;;;;;-4.24;82.06;98926.44;4989005;28;8848;-81
2024/01/08 07:34:45;;;;;;;;;31.00;29.50;;;;;-4.29;82.46;98923.72;5016046;28;8861;-82
2024/01/08 07:37:14;;;;;;;;;42.50;32.25;;;;;-4.24;82.93;98934.97;4999135;28;8851;-84
2024/01/08 07:39:43;;;;;;;;;39.25;38.00;;;;;-4.27;82.72;98937.44;5014670;28;8856;-80
2024/01/08 07:42:12;;;;;;;;;39.00;35.50;;;;;-4.59;83.75;98945.91;5014324;28;8844;-81
2024/01/08 07:44:41;;;;;;;;;41.25;35.00;;;;;-4.44;83.95;98951.50;5014376;28;9614;-80
2024/01/08 07:47:10;;;;;;;;;36.25;32.25;;;;;-4.49;83.40;98958.16;5001982;28;8855;-80
2024/01/08 07:49:39;;;;;;;;;44.00;37.75;;;;;-4.48;84.24;98960.78;5021154;28;8954;-78
2024/01/08 07:52:10;;;;;;;;;34.50;33.50;;;;;-4.72;84.00;98966.03;5060510;28;8842;-80
2024/01/08 07:54:38;;;;;;;;;40.00;35.50;;;;;-4.62;84.62;98973.19;5051531;28;8854;-79
2024/01/08 07:57:08;;;;;;;;;40.25;32.00;;;;;-4.81;84.68;98971.75;5073427;28;8862;-78
2024/01/08 07:59:40;;;;;;;;;35.75;32.50;;;;;-4.75;84.80;98977.91;5030920;28;8962;-78
2024/01/08 08:02:09;;;;;;;;;34.75;30.50;;;;;-4.65;84.25;98969.66;5068554;28;8956;-80
2024/01/08 08:04:38;;;;;;;;;45.25;41.25;;;;;-4.58;84.16;98970.72;5072257;28;8859;-80
2024/01/08 08:07:08;;;;;;;;;56.25;49.25;;;;;-4.63;83.87;98981.72;5074436;28;8862;-79
2024/01/08 08:09:37;;;;;;;;;59.50;50.50;;;;;-4.39;83.88;98985.84;5055898;28;8865;-78
2024/01/08 08:12:07;;;;;;;;;57.00;48.00;;;;;-4.54;84.01;98985.41;5074154;28;8838;-81
2024/01/08 08:14:36;;;;;;;;;61.50;51.00;;;;;-4.69;84.42;98991.78;5067745;28;8869;-81
2024/01/08 08:17:06;;;;;;;;;46.25;38.25;;;;;-4.68;83.98;99000.34;5065634;28;8862;-81
2024/01/08 08:19:35;;;;;;;;;45.50;40.25;;;;;-4.52;83.67;98992.31;5042918;28;8846;-80
2024/01/08 08:22:04;;;;;;;;;43.50;35.25;;;;;-4.57;83.67;99001.53;5036531;28;8865;-80
2024/01/08 08:24:34;;;;;;;;;33.00;27.00;;;;;-4.37;83.32;99002.16;5055073;28;8866;-80
2024/01/08 08:27:04;;;;;;;;;9.25;6.25;;;;;-4.39;83.52;99001.25;5074040;28;9031;-81
2024/01/08 08:29:33;;;;;;;;;60.75;48.75;;;;;-4.29;83.65;99003.25;5074820;28;8900;-80
2024/01/08 08:32:03;;;;;;;;;47.50;40.50;;;;;-4.25;82.78;99017.06;5072901;28;8862;-80
2024/01/08 08:34:32;;;;;;;;;45.50;42.50;;;;;-4.23;82.41;99007.69;5064948;28;8877;-80
2024/01/08 08:37:02;;;;;;;;;39.25;37.25;;;;;-4.16;82.36;99019.03;5076883;28;8871;-79
2024/01/08 08:39:35;;;;;;;;;46.00;40.67;;;;;-4.19;81.80;99022.34;5076003;28;8940;-80
2024/01/08 08:42:05;;;;;;;;;49.75;45.00;;;;;-4.10;81.08;99029.47;5087319;28;8854;-77
2024/01/08 08:44:34;;;;;;;;;46.75;39.75;;;;;-4.12;81.07;99026.84;5056329;28;8920;-79
2024/01/08 08:47:04;;;;;;;;;38.00;32.00;;;;;-4.23;81.55;99031.66;5072152;28;8850;-80
2024/01/08 08:49:33;;;;;;;;;38.00;33.25;;;;;-4.52;82.16;99035.03;5037058;28;8863;-80
2024/01/08 08:52:03;;;;;;;;;36.50;30.50;;;;;-4.30;82.63;99040.03;5071804;28;8846;-80
2024/01/08 08:54:34;;;;;;;;;48.75;45.75;;;;;-4.31;82.33;99037.41;5071747;28;8979;-82
2024/01/08 08:57:03;;;;;;;;;42.75;36.50;;;;;-4.61;82.67;99049.31;5032173;28;8895;-80
2024/01/08 08:59:37;;;;;;;;;42.25;35.50;;;;;-4.77;83.87;99054.78;5071535;28;8881;-80
2024/01/08 09:02:06;;;;;;;;;36.25;35.50;;;;;-4.62;82.85;99056.97;5072127;28;8854;-78
2024/01/08 09:04:35;;;;;;;;;45.50;40.00;;;;;-4.74;82.96;99056.56;5053716;28;8862;-80
2024/01/08 09:07:06;;;;;;;;;47.25;41.75;;;;;-4.62;83.26;99059.53;5071008;28;8940;-79
2024/01/08 09:09:36;;;;;;;;;37.50;28.00;;;;;-4.68;83.42;99061.88;5020699;28;8862;-80
2024/01/08 09:12:06;;;;;;;;;51.75;46.50;;;;;-4.70;84.00;99066.09;5028803;28;8896;-80
2024/01/08 09:14:35;;;;;;;;;36.25;34.00;;;;;-4.75;83.28;99067.66;5028457;28;8906;-80
2024/01/08 09:17:04;;;;;;;;;28.00;27.50;;;;;-5.05;83.71;99071.78;4980155;28;8837;-80
2024/01/08 09:19:35;;;;;;;;;33.50;29.25;;;;;-4.86;83.42;99077.53;5028859;28;8868;-80
2024/01/08 09:22:06;;;;;;;;;47.00;41.50;;;;;-4.74;83.18;99070.25;5016256;28;8849;-79
2024/01/08 09:24:36;;;;;;;;;39.25;31.50;;;;;-4.77;83.55;99077.84;5028951;28;9006;-79
2024/01/08 09:27:06;;;;;;;;;62.25;46.50;;;;;-4.69;83.68;99076.41;5029462;28;8852;-79
2024/01/08 09:29:34;;;;;;;;;52.25;45.50;;;;;-4.63;83.11;99074.03;5041802;28;8947;-79
2024/01/08 09:32:04;;;;;;;;;45.50;39.50;;;;;-4.58;82.36;99075.88;5036247;28;8852;-80
2024/01/08 09:34:33;;;;;;;;;54.00;47.50;;;;;-4.43;82.28;99084.06;5038439;28;8872;-81
2024/01/08 09:37:02;;;;;;;;;41.25;39.00;;;;;-4.34;81.65;99079.25;5032069;28;8836;-80
2024/01/08 09:39:32;;;;;;;;;47.00;45.00;;;;;-4.66;82.35;99088.44;5018007;28;8870;-79
2024/01/08 09:42:04;;;;;;;;;49.25;42.00;;;;;-4.61;82.38;99092.03;4996002;28;8868;-79
2024/01/08 09:44:33;;;;;;;;;47.75;40.00;;;;;-4.89;82.60;99095.38;5067979;28;8872;-77
2024/01/08 09:47:04;;;;;;;;;48.25;44.00;;;;;-4.77;82.61;99094.91;5062835;28;8846;-81
2024/01/08 09:49:33;;;;;;;;;61.00;49.25;;;;;-4.61;82.79;99092.91;5033470;28;8980;-79
2024/01/08 09:52:03;;;;;;;;;55.25;45.00;;;;;-4.52;82.24;99089.78;5047685;28;8859;-80
2024/01/08 09:54:34;;;;;;;;;50.25;40.00;;;;;-4.67;81.70;99094.41;5039631;28;9633;-82
2024/01/08 09:57:05;;;;;;;;;45.50;42.25;;;;;-4.70;82.53;99100.31;5053214;28;8870;-80
2024/01/08 09:59:34;;;;;;;;;48.00;44.00;;;;;-4.85;82.67;99105.81;5047222;28;8858;-79
2024/01/08 10:02:05;;;;;;;;;45.75;42.25;;;;;-5.03;83.55;99100.91;5024419;28;8862;-80
2024/01/08 10:04:35;;;;;;;;;43.00;38.50;;;;;-4.82;82.97;99102.47;5060977;28;8940;-79
2024/01/08 10:07:04;;;;;;;;;46.50;44.00;;;;;-4.86;82.44;99110.88;5013882;28;8854;-78
2024/01/08 10:09:36;;;;;;;;;46.75;41.00;;;;;-4.85;83.07;99100.69;5051239;28;8876;-77
2024/01/08 10:12:10;;;;;;;;;46.50;43.25;;;;;-4.83;83.02;99098.13;5027481;28;8889;-78
2024/01/08 10:14:40;;;;;;;;;48.25;41.00;;;;;-4.79;83.01;99110.28;5069944;28;8940;-79
2024/01/08 10:17:10;;;;;;;;;39.00;39.00;;;;;-4.78;81.98;99095.75;5070905;28;8854;-78
2024/01/08 10:19:40;;;;;;;;;53.00;44.00;;;;;-4.95;82.74;99096.03;5043747;28;8947;-78
2024/01/08 10:22:11;;;;;;;;;70.25;50.75;;;;;-4.97;82.78;99102.81;5072996;28;8831;-77
2024/01/08 10:24:42;;;;;;;;;49.00;39.50;;;;;-4.99;82.92;99101.88;5072891;28;9016;-77
2024/01/08 10:27:12;;;;;;;;;56.50;47.50;;;;;-4.97;83.29;99094.25;5071413;28;8874;-79
2024/01/08 10:29:42;;;;;;;;;58.75;46.25;;;;;-5.08;82.48;99099.88;5052362;28;8850;-76
2024/01/08 10:32:12;;;;;;;;;56.75;47.00;;;;;-4.98;83.30;99092.50;5068499;28;8862;-79
2024/01/08 10:34:44;;;;;;;;;50.50;45.00;;;;;-4.97;82.33;99102.81;5069346;28;8894;-78
2024/01/08 10:37:15;;;;;;;;;54.75;46.25;;;;;-4.84;82.09;99097.28;5050928;28;8857;-79
2024/01/08 10:39:47;;;;;;;;;61.25;51.75;;;;;-5.04;81.91;99101.75;5069376;28;8834;-77
2024/01/08 10:42:21;;;;;;;;;52.50;45.25;;;;;-4.98;82.53;99095.97;5067238;28;8847;-78
2024/01/08 10:44:50;;;;;;;;;69.50;52.00;;;;;-4.94;82.11;99099.47;5049721;28;8863;-79
2024/01/08 10:47:24;;;;;;;;;58.50;44.50;;;;;-4.91;82.33;99105.56;5068671;28;8839;-78
2024/01/08 10:49:59;;;;;;;;;76.50;56.00;;;;;-5.11;82.71;99101.47;5067772;28;8870;-79
2024/01/08 10:52:30;;;;;;;;;65.25;54.00;;;;;-5.18;82.77;99107.22;5067961;28;8830;-79
2024/01/08 10:55:04;;;;;;;;;65.50;52.00;;;;;-4.92;83.09;99108.13;5066992;28;8931;-80
2024/01/08 10:57:44;;;;;;;;;64.75;51.75;;;;;-4.89;82.21;99114.19;5066566;28;8862;-77
2024/01/08 11:00:15;;;;;;;;;60.75;49.00;;;;;-4.86;82.14;99110.88;5067815;28;8846;-75
2024/01/08 11:02:45;;;;;;;;;60.50;52.00;;;;;-4.70;82.08;99122.50;5068881;28;8836;-76
2024/01/08 11:05:17;;;;;;;;;73.75;57.00;;;;;-4.59;80.48;99105.78;5068164;28;8846;-74
2024/01/08 11:07:51;;;;;;;;;65.75;54.25;;;;;-4.65;81.20;99111.56;5069156;28;8866;-77
2024/01/08 11:10:23;;;;;;;;;54.50;48.50;;;;;-4.63;80.50;99124.47;5074187;28;8842;-76
2024/01/08 11:12:55;;;;;;;;;60.50;49.00;;;;;-4.83;81.64;99119.53;5067808;28;8835;-79
2024/01/08 11:15:26;;;;;;;;;68.25;51.75;;;;;-4.78;81.08;99124.81;5067379;28;8847;-79
2024/01/08 11:17:58;;;;;;;;;58.00;48.25;;;;;-5.02;81.66;99124.84;5067225;28;8870;-77
2024/01/08 11:20:43;;;;;;;;;64.75;52.25;;;;;-4.91;81.67;99122.66;5050130;28;8974;-76
2024/01/08 11:23:38;;;;;;;;;64.50;54.25;;;;;-4.85;81.91;99123.75;5066282;28;8882;-78
2024/01/08 11:26:11;;;;;;;;;62.50;48.75;;;;;-5.12;82.89;99130.47;5057419;28;8866;-78
2024/01/08 11:28:42;;;;;;;;;66.00;52.75;;;;;-4.88;82.87;99128.75;5065688;28;8862;-78
2024/01/08 11:31:42;;;;;;;;;59.75;49.50;;;;;-4.96;82.66;99126.75;5018910;28;8895;-77
2024/01/08 11:34:43;;;;;;;;;59.00;48.75;;;;;-4.49;82.35;99130.03;5066619;28;8865;-77
2024/01/08 11:37:30;;;;;;;;;70.25;53.75;;;;;-4.92;82.42;99124.34;5068859;28;8846;-78